CheckWX is a tool to help pilots better visualize weather data.  It is not intended as a substitute for an official pre-flight weather briefing.

06:07:51 UTC

KBVX METAR
Batesville Regional Airport
Batesville, Arkansas, USA
Current

12 mins ago

KBVX 140556Z AUTO VRB05KT 10SM OVC100 01/M07 A3020 RMK AO2 SLP230 6//// T00111067 10017 20000 400561106 50001 FZRANO
Observed
Nov-14 @ 05:56 UTC
Wind
  • Variable at 5 KTS
Visibility
10 SM
Flight Rules
VFR
Cloud Levels
  • Overcast at 10,000' AGL
Temperature
C / 34°F
Dewpoint
-7°C / 19°F
Humidity
56%
Altimeter
30.2" Hg
Pressure
1022.72 hPa
Previous

1 hour ago

KBVX 140456Z AUTO 20007KT 10SM BKN100 01/M07 A3020 RMK AO2 SLP232 T00111067 FZRANO
Observed
Nov-14 @ 04:56 UTC
Wind
  • 200° at 7 KTS
Visibility
10 SM
Flight Rules
VFR
Cloud Levels
  • Broken at 10,000' AGL
Temperature
C / 34°F
Dewpoint
-7°C / 19°F
Humidity
56%
Altimeter
30.2" Hg
Pressure
1022.72 hPa
Previous

2 hours ago

KBVX 140356Z AUTO 20005KT 10SM BKN100 01/M07 A3020 RMK AO2 SLP233 T00111072 FZRANO
Observed
Nov-14 @ 03:56 UTC
Wind
  • 200° at 5 KTS
Visibility
10 SM
Flight Rules
VFR
Cloud Levels
  • Broken at 10,000' AGL
Temperature
C / 34°F
Dewpoint
-7°C / 19°F
Humidity
56%
Altimeter
30.2" Hg
Pressure
1022.72 hPa